sensor_id;sensor_type;location;lat;lon;timestamp;P1;durP1;ratioP1;P2;durP2;ratioP2
75993;SDS011;64680;53.800;9.988;2023-03-20T00:00:34;48.60;;;14.88;;
75993;SDS011;64680;53.800;9.988;2023-03-20T00:03:02;42.33;;;13.70;;
75993;SDS011;64680;53.800;9.988;2023-03-20T00:05:29;42.70;;;13.90;;
75993;SDS011;64680;53.800;9.988;2023-03-20T00:07:55;50.92;;;14.98;;
75993;SDS011;64680;53.800;9.988;2023-03-20T00:10:23;47.90;;;15.23;;
75993;SDS011;64680;53.800;9.988;2023-03-20T00:12:59;41.08;;;13.93;;
75993;SDS011;64680;53.800;9.988;2023-03-20T00:15:29;37.47;;;12.85;;
75993;SDS011;64680;53.800;9.988;2023-03-20T00:17:57;41.65;;;13.90;;
75993;SDS011;64680;53.800;9.988;2023-03-20T00:20:23;48.88;;;15.60;;
75993;SDS011;64680;53.800;9.988;2023-03-20T00:22:49;48.13;;;16.02;;
75993;SDS011;64680;53.800;9.988;2023-03-20T00:25:16;43.72;;;14.27;;
75993;SDS011;64680;53.800;9.988;2023-03-20T00:27:44;44.60;;;14.90;;
75993;SDS011;64680;53.800;9.988;2023-03-20T00:32:56;52.72;;;16.58;;
75993;SDS011;64680;53.800;9.988;2023-03-20T00:35:26;43.25;;;15.82;;
75993;SDS011;64680;53.800;9.988;2023-03-20T00:37:55;51.92;;;18.58;;
75993;SDS011;64680;53.800;9.988;2023-03-20T00:40:22;47.78;;;16.95;;
75993;SDS011;64680;53.800;9.988;2023-03-20T00:42:55;46.45;;;16.27;;
75993;SDS011;64680;53.800;9.988;2023-03-20T00:45:24;49.58;;;15.93;;
75993;SDS011;64680;53.800;9.988;2023-03-20T00:47:51;49.13;;;16.75;;
75993;SDS011;64680;53.800;9.988;2023-03-20T00:50:18;40.05;;;14.55;;
75993;SDS011;64680;53.800;9.988;2023-03-20T00:52:49;45.33;;;14.07;;
75993;SDS011;64680;53.800;9.988;2023-03-20T00:55:15;40.75;;;14.02;;
75993;SDS011;64680;53.800;9.988;2023-03-20T00:57:50;44.90;;;15.07;;
75993;SDS011;64680;53.800;9.988;2023-03-20T01:00:21;38.75;;;14.32;;
75993;SDS011;64680;53.800;9.988;2023-03-20T01:02:54;46.85;;;15.75;;
75993;SDS011;64680;53.800;9.988;2023-03-20T01:05:21;37.88;;;12.55;;
75993;SDS011;64680;53.800;9.988;2023-03-20T01:07:48;44.03;;;14.68;;
75993;SDS011;64680;53.800;9.988;2023-03-20T01:10:14;46.15;;;14.88;;
75993;SDS011;64680;53.800;9.988;2023-03-20T01:12:42;37.15;;;12.80;;
75993;SDS011;64680;53.800;9.988;2023-03-20T01:15:19;43.47;;;14.73;;
75993;SDS011;64680;53.800;9.988;2023-03-20T01:17:47;32.55;;;10.32;;
75993;SDS011;64680;53.800;9.988;2023-03-20T01:20:15;35.72;;;11.43;;
75993;SDS011;64680;53.800;9.988;2023-03-20T01:22:42;37.25;;;11.20;;
75993;SDS011;64680;53.800;9.988;2023-03-20T01:25:08;33.67;;;11.38;;
75993;SDS011;64680;53.800;9.988;2023-03-20T01:27:34;32.85;;;11.13;;
75993;SDS011;64680;53.800;9.988;2023-03-20T01:29:59;31.02;;;11.27;;
75993;SDS011;64680;53.800;9.988;2023-03-20T01:32:25;30.85;;;9.77;;
75993;SDS011;64680;53.800;9.988;2023-03-20T01:34:51;26.15;;;8.98;;
75993;SDS011;64680;53.800;9.988;2023-03-20T01:37:20;26.33;;;8.88;;
75993;SDS011;64680;53.800;9.988;2023-03-20T01:39:51;28.27;;;9.13;;
75993;SDS011;64680;53.800;9.988;2023-03-20T01:42:17;18.80;;;8.10;;
75993;SDS011;64680;53.800;9.988;2023-03-20T01:44:42;18.13;;;6.90;;
75993;SDS011;64680;53.800;9.988;2023-03-20T01:47:21;18.58;;;7.18;;
75993;SDS011;64680;53.800;9.988;2023-03-20T01:52:57;18.33;;;6.93;;
75993;SDS011;64680;53.800;9.988;2023-03-20T01:55:29;24.50;;;7.32;;
75993;SDS011;64680;53.800;9.988;2023-03-20T01:57:56;22.10;;;7.28;;
75993;SDS011;64680;53.800;9.988;2023-03-20T02:00:26;21.35;;;7.10;;
75993;SDS011;64680;53.800;9.988;2023-03-20T02:02:52;20.63;;;7.30;;
75993;SDS011;64680;53.800;9.988;2023-03-20T02:05:19;22.98;;;7.85;;
75993;SDS011;64680;53.800;9.988;2023-03-20T02:07:48;19.23;;;7.35;;
75993;SDS011;64680;53.800;9.988;2023-03-20T02:10:21;21.80;;;7.47;;
75993;SDS011;64680;53.800;9.988;2023-03-20T02:12:47;17.48;;;6.82;;
75993;SDS011;64680;53.800;9.988;2023-03-20T02:15:13;17.38;;;6.75;;
75993;SDS011;64680;53.800;9.988;2023-03-20T02:17:40;19.42;;;6.43;;
75993;SDS011;64680;53.800;9.988;2023-03-20T02:28:46;10.80;;;3.97;;
75993;SDS011;64680;53.800;9.988;2023-03-20T02:43:46;11.15;;;5.32;;
75993;SDS011;64680;53.800;9.988;2023-03-20T02:49:09;11.02;;;4.60;;
75993;SDS011;64680;53.800;9.988;2023-03-20T02:52:00;13.93;;;5.22;;
75993;SDS011;64680;53.800;9.988;2023-03-20T02:57:29;15.50;;;5.38;;
75993;SDS011;64680;53.800;9.988;2023-03-20T03:00:07;14.48;;;4.82;;
75993;SDS011;64680;53.800;9.988;2023-03-20T03:02:51;14.70;;;5.35;;
75993;SDS011;64680;53.800;9.988;2023-03-20T03:05:25;13.02;;;5.38;;
75993;SDS011;64680;53.800;9.988;2023-03-20T03:10:28;18.33;;;6.15;;
75993;SDS011;64680;53.800;9.988;2023-03-20T03:12:57;14.30;;;5.38;;
75993;SDS011;64680;53.800;9.988;2023-03-20T03:15:36;14.43;;;5.88;;
75993;SDS011;64680;53.800;9.988;2023-03-20T03:18:04;14.27;;;4.80;;
75993;SDS011;64680;53.800;9.988;2023-03-20T03:20:36;13.18;;;4.93;;
75993;SDS011;64680;53.800;9.988;2023-03-20T03:23:03;14.13;;;5.25;;
75993;SDS011;64680;53.800;9.988;2023-03-20T03:25:37;13.43;;;5.50;;
75993;SDS011;64680;53.800;9.988;2023-03-20T03:30:49;12.27;;;4.68;;
75993;SDS011;64680;53.800;9.988;2023-03-20T03:33:18;10.57;;;4.35;;
75993;SDS011;64680;53.800;9.988;2023-03-20T03:35:47;12.30;;;5.05;;
75993;SDS011;64680;53.800;9.988;2023-03-20T03:38:32;14.30;;;5.80;;
75993;SDS011;64680;53.800;9.988;2023-03-20T03:44:06;10.75;;;5.20;;
75993;SDS011;64680;53.800;9.988;2023-03-20T03:46:53;8.90;;;4.30;;
75993;SDS011;64680;53.800;9.988;2023-03-20T03:49:26;11.10;;;4.85;;
75993;SDS011;64680;53.800;9.988;2023-03-20T03:51:58;7.13;;;3.20;;
75993;SDS011;64680;53.800;9.988;2023-03-20T03:54:29;8.05;;;3.60;;
75993;SDS011;64680;53.800;9.988;2023-03-20T03:56:59;7.18;;;4.22;;
75993;SDS011;64680;53.800;9.988;2023-03-20T03:59:33;7.38;;;4.05;;
75993;SDS011;64680;53.800;9.988;2023-03-20T04:02:02;10.25;;;3.97;;
75993;SDS011;64680;53.800;9.988;2023-03-20T04:04:32;9.00;;;3.85;;
75993;SDS011;64680;53.800;9.988;2023-03-20T04:06:59;11.43;;;4.00;;
75993;SDS011;64680;53.800;9.988;2023-03-20T04:09:25;9.05;;;3.60;;
75993;SDS011;64680;53.800;9.988;2023-03-20T04:11:51;9.35;;;3.78;;
75993;SDS011;64680;53.800;9.988;2023-03-20T04:14:17;10.55;;;3.75;;
75993;SDS011;64680;53.800;9.988;2023-03-20T04:16:43;8.82;;;3.08;;
75993;SDS011;64680;53.800;9.988;2023-03-20T04:19:09;7.13;;;3.08;;
75993;SDS011;64680;53.800;9.988;2023-03-20T04:21:35;7.50;;;2.80;;
75993;SDS011;64680;53.800;9.988;2023-03-20T04:24:01;7.53;;;4.05;;
75993;SDS011;64680;53.800;9.988;2023-03-20T04:26:27;6.63;;;2.83;;
75993;SDS011;64680;53.800;9.988;2023-03-20T04:28:52;7.72;;;2.58;;
75993;SDS011;64680;53.800;9.988;2023-03-20T04:31:18;7.97;;;2.75;;
75993;SDS011;64680;53.800;9.988;2023-03-20T04:33:44;5.70;;;2.25;;
75993;SDS011;64680;53.800;9.988;2023-03-20T04:36:09;6.40;;;2.72;;
75993;SDS011;64680;53.800;9.988;2023-03-20T04:38:36;6.15;;;2.10;;
75993;SDS011;64680;53.800;9.988;2023-03-20T04:41:02;7.03;;;2.17;;
75993;SDS011;64680;53.800;9.988;2023-03-20T04:43:28;6.97;;;2.63;;
75993;SDS011;64680;53.800;9.988;2023-03-20T04:45:54;4.78;;;2.30;;
75993;SDS011;64680;53.800;9.988;2023-03-20T04:48:19;5.00;;;2.20;;
75993;SDS011;64680;53.800;9.988;2023-03-20T04:50:45;4.75;;;2.10;;
75993;SDS011;64680;53.800;9.988;2023-03-20T04:53:12;6.25;;;2.20;;
75993;SDS011;64680;53.800;9.988;2023-03-20T04:55:39;4.53;;;1.80;;
75993;SDS011;64680;53.800;9.988;2023-03-20T04:58:05;6.22;;;2.00;;
75993;SDS011;64680;53.800;9.988;2023-03-20T05:00:31;4.72;;;2.05;;
75993;SDS011;64680;53.800;9.988;2023-03-20T05:02:57;6.35;;;2.15;;
75993;SDS011;64680;53.800;9.988;2023-03-20T05:05:22;6.60;;;2.50;;
75993;SDS011;64680;53.800;9.988;2023-03-20T05:07:48;6.63;;;2.70;;
75993;SDS011;64680;53.800;9.988;2023-03-20T05:10:15;5.43;;;2.38;;
75993;SDS011;64680;53.800;9.988;2023-03-20T05:12:41;5.80;;;3.00;;
75993;SDS011;64680;53.800;9.988;2023-03-20T05:15:06;6.35;;;2.42;;
75993;SDS011;64680;53.800;9.988;2023-03-20T05:17:32;6.10;;;2.28;;
75993;SDS011;64680;53.800;9.988;2023-03-20T05:19:58;6.15;;;3.03;;
75993;SDS011;64680;53.800;9.988;2023-03-20T05:22:24;9.15;;;3.08;;
75993;SDS011;64680;53.800;9.988;2023-03-20T05:24:49;8.40;;;3.25;;
75993;SDS011;64680;53.800;9.988;2023-03-20T05:27:15;6.32;;;2.88;;
75993;SDS011;64680;53.800;9.988;2023-03-20T05:29:41;9.25;;;3.67;;
75993;SDS011;64680;53.800;9.988;2023-03-20T05:32:07;8.65;;;4.13;;
75993;SDS011;64680;53.800;9.988;2023-03-20T05:34:33;7.63;;;3.55;;
75993;SDS011;64680;53.800;9.988;2023-03-20T05:36:58;8.45;;;4.10;;
75993;SDS011;64680;53.800;9.988;2023-03-20T05:39:24;10.20;;;4.00;;
75993;SDS011;64680;53.800;9.988;2023-03-20T05:41:50;11.88;;;4.13;;
75993;SDS011;64680;53.800;9.988;2023-03-20T05:44:15;9.20;;;3.88;;
75993;SDS011;64680;53.800;9.988;2023-03-20T05:46:41;10.02;;;4.40;;
75993;SDS011;64680;53.800;9.988;2023-03-20T05:49:07;10.80;;;4.22;;
75993;SDS011;64680;53.800;9.988;2023-03-20T05:51:32;10.48;;;4.70;;
75993;SDS011;64680;53.800;9.988;2023-03-20T05:53:58;11.10;;;5.20;;
75993;SDS011;64680;53.800;9.988;2023-03-20T05:56:23;9.13;;;4.22;;
75993;SDS011;64680;53.800;9.988;2023-03-20T05:58:49;10.07;;;4.15;;
75993;SDS011;64680;53.800;9.988;2023-03-20T06:01:16;9.77;;;4.20;;
75993;SDS011;64680;53.800;9.988;2023-03-20T06:03:45;10.73;;;4.22;;
75993;SDS011;64680;53.800;9.988;2023-03-20T06:06:11;11.45;;;5.30;;
75993;SDS011;64680;53.800;9.988;2023-03-20T06:08:37;11.80;;;5.15;;
75993;SDS011;64680;53.800;9.988;2023-03-20T06:11:03;13.05;;;5.35;;
75993;SDS011;64680;53.800;9.988;2023-03-20T06:13:28;12.75;;;5.38;;
75993;SDS011;64680;53.800;9.988;2023-03-20T06:15:54;10.55;;;4.57;;
75993;SDS011;64680;53.800;9.988;2023-03-20T06:18:20;11.50;;;4.88;;
75993;SDS011;64680;53.800;9.988;2023-03-20T06:20:50;10.07;;;5.10;;
75993;SDS011;64680;53.800;9.988;2023-03-20T06:23:17;9.80;;;5.55;;
75993;SDS011;64680;53.800;9.988;2023-03-20T06:25:42;13.07;;;5.43;;
75993;SDS011;64680;53.800;9.988;2023-03-20T06:28:08;16.35;;;6.28;;
75993;SDS011;64680;53.800;9.988;2023-03-20T06:30:34;12.32;;;5.75;;
75993;SDS011;64680;53.800;9.988;2023-03-20T06:32:59;11.52;;;5.53;;
75993;SDS011;64680;53.800;9.988;2023-03-20T06:35:25;14.52;;;5.82;;
75993;SDS011;64680;53.800;9.988;2023-03-20T06:37:55;14.23;;;5.97;;
75993;SDS011;64680;53.800;9.988;2023-03-20T06:40:21;15.07;;;6.95;;
75993;SDS011;64680;53.800;9.988;2023-03-20T06:42:46;17.30;;;6.70;;
75993;SDS011;64680;53.800;9.988;2023-03-20T06:45:12;16.75;;;6.35;;
75993;SDS011;64680;53.800;9.988;2023-03-20T06:47:37;15.40;;;6.22;;
75993;SDS011;64680;53.800;9.988;2023-03-20T06:50:03;16.20;;;6.22;;
75993;SDS011;64680;53.800;9.988;2023-03-20T06:52:29;17.45;;;7.22;;
75993;SDS011;64680;53.800;9.988;2023-03-20T06:54:55;11.00;;;5.75;;
75993;SDS011;64680;53.800;9.988;2023-03-20T06:57:22;10.00;;;4.93;;
75993;SDS011;64680;53.800;9.988;2023-03-20T06:59:48;12.10;;;5.53;;
75993;SDS011;64680;53.800;9.988;2023-03-20T07:02:13;11.45;;;5.13;;
75993;SDS011;64680;53.800;9.988;2023-03-20T07:04:40;13.52;;;6.10;;
75993;SDS011;64680;53.800;9.988;2023-03-20T07:07:06;9.20;;;4.95;;
75993;SDS011;64680;53.800;9.988;2023-03-20T07:09:32;11.52;;;4.55;;
75993;SDS011;64680;53.800;9.988;2023-03-20T07:11:58;10.30;;;4.75;;
75993;SDS011;64680;53.800;9.988;2023-03-20T07:14:24;9.85;;;4.82;;
75993;SDS011;64680;53.800;9.988;2023-03-20T07:16:50;11.95;;;5.75;;
75993;SDS011;64680;53.800;9.988;2023-03-20T07:19:16;9.75;;;5.05;;
75993;SDS011;64680;53.800;9.988;2023-03-20T07:21:42;10.63;;;5.00;;
75993;SDS011;64680;53.800;9.988;2023-03-20T07:24:08;10.75;;;5.28;;
75993;SDS011;64680;53.800;9.988;2023-03-20T07:26:34;9.02;;;4.85;;
75993;SDS011;64680;53.800;9.988;2023-03-20T07:29:00;11.90;;;5.20;;
75993;SDS011;64680;53.800;9.988;2023-03-20T07:31:26;10.88;;;5.25;;
75993;SDS011;64680;53.800;9.988;2023-03-20T07:33:53;10.85;;;5.47;;
75993;SDS011;64680;53.800;9.988;2023-03-20T07:36:19;15.23;;;5.93;;
75993;SDS011;64680;53.800;9.988;2023-03-20T07:38:45;14.23;;;5.43;;
75993;SDS011;64680;53.800;9.988;2023-03-20T07:41:10;12.90;;;5.28;;
75993;SDS011;64680;53.800;9.988;2023-03-20T07:43:36;13.95;;;6.75;;
75993;SDS011;64680;53.800;9.988;2023-03-20T07:46:02;16.23;;;5.85;;
75993;SDS011;64680;53.800;9.988;2023-03-20T07:48:29;15.48;;;6.47;;
75993;SDS011;64680;53.800;9.988;2023-03-20T07:50:55;14.43;;;6.13;;
75993;SDS011;64680;53.800;9.988;2023-03-20T07:53:20;16.02;;;6.70;;
75993;SDS011;64680;53.800;9.988;2023-03-20T07:55:46;14.57;;;6.53;;
75993;SDS011;64680;53.800;9.988;2023-03-20T07:58:12;16.15;;;5.75;;
75993;SDS011;64680;53.800;9.988;2023-03-20T08:00:37;14.77;;;6.13;;
75993;SDS011;64680;53.800;9.988;2023-03-20T08:03:03;18.65;;;7.05;;
75993;SDS011;64680;53.800;9.988;2023-03-20T08:05:29;14.55;;;6.68;;
75993;SDS011;64680;53.800;9.988;2023-03-20T08:07:55;17.38;;;7.18;;
75993;SDS011;64680;53.800;9.988;2023-03-20T08:10:20;15.30;;;6.07;;
75993;SDS011;64680;53.800;9.988;2023-03-20T08:12:46;17.70;;;6.28;;
75993;SDS011;64680;53.800;9.988;2023-03-20T08:15:12;14.32;;;6.28;;
75993;SDS011;64680;53.800;9.988;2023-03-20T08:17:40;15.98;;;6.80;;
75993;SDS011;64680;53.800;9.988;2023-03-20T08:20:10;11.48;;;5.57;;
75993;SDS011;64680;53.800;9.988;2023-03-20T08:22:37;14.35;;;5.93;;
75993;SDS011;64680;53.800;9.988;2023-03-20T08:25:03;16.80;;;6.93;;
75993;SDS011;64680;53.800;9.988;2023-03-20T08:27:29;12.73;;;5.80;;
75993;SDS011;64680;53.800;9.988;2023-03-20T08:29:55;12.45;;;5.47;;
75993;SDS011;64680;53.800;9.988;2023-03-20T08:32:20;13.68;;;5.88;;
75993;SDS011;64680;53.800;9.988;2023-03-20T08:34:46;11.43;;;5.65;;
75993;SDS011;64680;53.800;9.988;2023-03-20T08:37:12;12.02;;;5.22;;
75993;SDS011;64680;53.800;9.988;2023-03-20T08:39:38;10.55;;;4.95;;
75993;SDS011;64680;53.800;9.988;2023-03-20T08:42:04;12.20;;;6.20;;
75993;SDS011;64680;53.800;9.988;2023-03-20T08:44:30;11.43;;;5.47;;
75993;SDS011;64680;53.800;9.988;2023-03-20T08:46:56;12.15;;;5.32;;
75993;SDS011;64680;53.800;9.988;2023-03-20T08:49:22;10.88;;;5.38;;
75993;SDS011;64680;53.800;9.988;2023-03-20T08:51:48;11.68;;;5.55;;
75993;SDS011;64680;53.800;9.988;2023-03-20T08:54:14;10.85;;;5.15;;
75993;SDS011;64680;53.800;9.988;2023-03-20T08:56:42;9.00;;;5.22;;
75993;SDS011;64680;53.800;9.988;2023-03-20T08:59:11;9.05;;;5.05;;
75993;SDS011;64680;53.800;9.988;2023-03-20T09:01:37;9.80;;;4.45;;
75993;SDS011;64680;53.800;9.988;2023-03-20T09:04:03;10.63;;;4.43;;
75993;SDS011;64680;53.800;9.988;2023-03-20T09:06:29;11.43;;;4.60;;
75993;SDS011;64680;53.800;9.988;2023-03-20T09:08:55;7.85;;;4.47;;
75993;SDS011;64680;53.800;9.988;2023-03-20T09:11:21;8.75;;;4.70;;
75993;SDS011;64680;53.800;9.988;2023-03-20T09:13:47;10.73;;;4.55;;
75993;SDS011;64680;53.800;9.988;2023-03-20T09:16:13;10.50;;;4.65;;
75993;SDS011;64680;53.800;9.988;2023-03-20T09:18:38;9.57;;;4.20;;
75993;SDS011;64680;53.800;9.988;2023-03-20T09:21:04;11.43;;;4.78;;
75993;SDS011;64680;53.800;9.988;2023-03-20T09:23:30;8.82;;;4.13;;
75993;SDS011;64680;53.800;9.988;2023-03-20T09:25:56;11.25;;;4.90;;
75993;SDS011;64680;53.800;9.988;2023-03-20T09:28:21;11.57;;;4.82;;
75993;SDS011;64680;53.800;9.988;2023-03-20T09:30:47;11.18;;;4.70;;
75993;SDS011;64680;53.800;9.988;2023-03-20T09:33:13;7.18;;;4.15;;
75993;SDS011;64680;53.800;9.988;2023-03-20T09:35:39;8.02;;;4.90;;
75993;SDS011;64680;53.800;9.988;2023-03-20T09:38:05;9.35;;;4.00;;
75993;SDS011;64680;53.800;9.988;2023-03-20T09:48:34;7.70;;;3.53;;
75993;SDS011;64680;53.800;9.988;2023-03-20T09:53:58;7.88;;;3.63;;
75993;SDS011;64680;53.800;9.988;2023-03-20T09:56:35;7.03;;;3.70;;
75993;SDS011;64680;53.800;9.988;2023-03-20T09:59:03;8.68;;;3.28;;
75993;SDS011;64680;53.800;9.988;2023-03-20T10:01:52;7.03;;;3.65;;
75993;SDS011;64680;53.800;9.988;2023-03-20T10:04:30;8.73;;;3.80;;
75993;SDS011;64680;53.800;9.988;2023-03-20T10:06:57;8.35;;;3.70;;
75993;SDS011;64680;53.800;9.988;2023-03-20T10:09:24;8.15;;;3.85;;
75993;SDS011;64680;53.800;9.988;2023-03-20T10:17:47;9.50;;;4.50;;
75993;SDS011;64680;53.800;9.988;2023-03-20T10:26:10;8.77;;;4.47;;
75993;SDS011;64680;53.800;9.988;2023-03-20T10:34:31;10.40;;;4.20;;
75993;SDS011;64680;53.800;9.988;2023-03-20T10:42:26;10.05;;;4.55;;
75993;SDS011;64680;53.800;9.988;2023-03-20T10:45:05;8.73;;;4.38;;
75993;SDS011;64680;53.800;9.988;2023-03-20T10:47:42;9.98;;;4.32;;
75993;SDS011;64680;53.800;9.988;2023-03-20T10:52:42;11.57;;;4.15;;
75993;SDS011;64680;53.800;9.988;2023-03-20T10:55:17;11.07;;;5.07;;
75993;SDS011;64680;53.800;9.988;2023-03-20T10:57:56;11.40;;;4.50;;
75993;SDS011;64680;53.800;9.988;2023-03-20T11:00:27;13.02;;;4.80;;
75993;SDS011;64680;53.800;9.988;2023-03-20T11:02:52;11.13;;;4.88;;
75993;SDS011;64680;53.800;9.988;2023-03-20T11:05:22;10.05;;;4.47;;
75993;SDS011;64680;53.800;9.988;2023-03-20T11:08:01;9.63;;;5.68;;
75993;SDS011;64680;53.800;9.988;2023-03-20T11:10:31;12.70;;;5.15;;
75993;SDS011;64680;53.800;9.988;2023-03-20T11:13:03;9.00;;;4.82;;
75993;SDS011;64680;53.800;9.988;2023-03-20T11:15:46;11.73;;;4.82;;
75993;SDS011;64680;53.800;9.988;2023-03-20T11:18:12;8.82;;;4.90;;
75993;SDS011;64680;53.800;9.988;2023-03-20T11:20:48;9.10;;;4.57;;
75993;SDS011;64680;53.800;9.988;2023-03-20T11:23:19;10.48;;;5.00;;
75993;SDS011;64680;53.800;9.988;2023-03-20T11:25:56;8.32;;;4.07;;
75993;SDS011;64680;53.800;9.988;2023-03-20T11:28:25;10.13;;;5.50;;
75993;SDS011;64680;53.800;9.988;2023-03-20T11:30:58;11.20;;;4.85;;
75993;SDS011;64680;53.800;9.988;2023-03-20T11:33:26;11.52;;;4.53;;
75993;SDS011;64680;53.800;9.988;2023-03-20T11:35:54;10.20;;;4.82;;
75993;SDS011;64680;53.800;9.988;2023-03-20T11:38:22;10.32;;;5.20;;
75993;SDS011;64680;53.800;9.988;2023-03-20T11:40:48;11.43;;;5.60;;
75993;SDS011;64680;53.800;9.988;2023-03-20T11:43:18;12.10;;;5.10;;
75993;SDS011;64680;53.800;9.988;2023-03-20T11:45:52;11.32;;;5.70;;
75993;SDS011;64680;53.800;9.988;2023-03-20T11:48:24;10.10;;;5.22;;
75993;SDS011;64680;53.800;9.988;2023-03-20T11:51:02;11.35;;;4.95;;
75993;SDS011;64680;53.800;9.988;2023-03-20T11:53:38;9.52;;;4.68;;
75993;SDS011;64680;53.800;9.988;2023-03-20T11:58:38;9.25;;;5.25;;
75993;SDS011;64680;53.800;9.988;2023-03-20T12:01:52;8.27;;;4.00;;
75993;SDS011;64680;53.800;9.988;2023-03-20T12:12:30;8.60;;;4.70;;
75993;SDS011;64680;53.800;9.988;2023-03-20T12:25:26;9.18;;;4.68;;
75993;SDS011;64680;53.800;9.988;2023-03-20T12:28:21;12.85;;;4.82;;
75993;SDS011;64680;53.800;9.988;2023-03-20T12:33:35;10.90;;;5.88;;
75993;SDS011;64680;53.800;9.988;2023-03-20T12:36:12;9.75;;;4.85;;
75993;SDS011;64680;53.800;9.988;2023-03-20T12:39:00;12.27;;;4.80;;
75993;SDS011;64680;53.800;9.988;2023-03-20T12:41:43;8.52;;;4.60;;
75993;SDS011;64680;53.800;9.988;2023-03-20T12:44:46;8.57;;;4.63;;
75993;SDS011;64680;53.800;9.988;2023-03-20T12:58:52;8.20;;;4.03;;
75993;SDS011;64680;53.800;9.988;2023-03-20T13:01:29;7.82;;;3.92;;
75993;SDS011;64680;53.800;9.988;2023-03-20T13:06:53;9.63;;;5.57;;
75993;SDS011;64680;53.800;9.988;2023-03-20T13:12:14;10.57;;;4.38;;
75993;SDS011;64680;53.800;9.988;2023-03-20T13:14:51;6.85;;;4.63;;
75993;SDS011;64680;53.800;9.988;2023-03-20T13:20:28;10.27;;;4.45;;
75993;SDS011;64680;53.800;9.988;2023-03-20T13:31:52;9.48;;;3.72;;
75993;SDS011;64680;53.800;9.988;2023-03-20T13:34:55;9.15;;;4.07;;
75993;SDS011;64680;53.800;9.988;2023-03-20T13:40:02;10.90;;;4.57;;
75993;SDS011;64680;53.800;9.988;2023-03-20T13:42:34;9.82;;;4.78;;
75993;SDS011;64680;53.800;9.988;2023-03-20T13:45:18;11.07;;;4.38;;
75993;SDS011;64680;53.800;9.988;2023-03-20T13:48:27;9.30;;;4.60;;
75993;SDS011;64680;53.800;9.988;2023-03-20T14:01:39;10.20;;;4.72;;
75993;SDS011;64680;53.800;9.988;2023-03-20T14:04:16;9.88;;;4.25;;
75993;SDS011;64680;53.800;9.988;2023-03-20T14:06:50;9.85;;;4.55;;
75993;SDS011;64680;53.800;9.988;2023-03-20T14:09:26;8.25;;;4.35;;
75993;SDS011;64680;53.800;9.988;2023-03-20T14:11:54;8.80;;;4.60;;
75993;SDS011;64680;53.800;9.988;2023-03-20T14:14:28;8.00;;;4.55;;
75993;SDS011;64680;53.800;9.988;2023-03-20T14:16:59;10.32;;;4.60;;
75993;SDS011;64680;53.800;9.988;2023-03-20T14:19:40;10.60;;;4.55;;
75993;SDS011;64680;53.800;9.988;2023-03-20T14:22:06;7.88;;;4.32;;
75993;SDS011;64680;53.800;9.988;2023-03-20T14:24:40;10.02;;;4.47;;
75993;SDS011;64680;53.800;9.988;2023-03-20T14:27:18;8.77;;;4.55;;
75993;SDS011;64680;53.800;9.988;2023-03-20T14:29:45;9.20;;;4.00;;
75993;SDS011;64680;53.800;9.988;2023-03-20T14:40:23;8.18;;;3.85;;
75993;SDS011;64680;53.800;9.988;2023-03-20T14:42:56;8.10;;;4.35;;
75993;SDS011;64680;53.800;9.988;2023-03-20T14:50:38;9.48;;;4.10;;
75993;SDS011;64680;53.800;9.988;2023-03-20T15:01:08;15.27;;;4.47;;
75993;SDS011;64680;53.800;9.988;2023-03-20T15:03:38;10.65;;;4.47;;
75993;SDS011;64680;53.800;9.988;2023-03-20T15:06:05;8.25;;;4.53;;
75993;SDS011;64680;53.800;9.988;2023-03-20T15:08:33;10.40;;;6.22;;
75993;SDS011;64680;53.800;9.988;2023-03-20T15:11:06;11.48;;;5.55;;
75993;SDS011;64680;53.800;9.988;2023-03-20T15:13:34;9.88;;;5.00;;
75993;SDS011;64680;53.800;9.988;2023-03-20T15:18:53;10.95;;;6.13;;
75993;SDS011;64680;53.800;9.988;2023-03-20T15:21:19;13.57;;;7.25;;
75993;SDS011;64680;53.800;9.988;2023-03-20T15:24:01;11.57;;;5.45;;
75993;SDS011;64680;53.800;9.988;2023-03-20T15:26:27;11.13;;;5.97;;
75993;SDS011;64680;53.800;9.988;2023-03-20T15:29:04;11.32;;;6.30;;
75993;SDS011;64680;53.800;9.988;2023-03-20T15:31:32;10.40;;;5.43;;
75993;SDS011;64680;53.800;9.988;2023-03-20T15:34:02;11.77;;;6.32;;
75993;SDS011;64680;53.800;9.988;2023-03-20T15:36:32;15.80;;;6.35;;
75993;SDS011;64680;53.800;9.988;2023-03-20T15:41:49;13.95;;;6.45;;
75993;SDS011;64680;53.800;9.988;2023-03-20T15:44:19;11.82;;;7.13;;
75993;SDS011;64680;53.800;9.988;2023-03-20T15:46:58;10.95;;;6.57;;
75993;SDS011;64680;53.800;9.988;2023-03-20T15:49:27;14.27;;;8.40;;
75993;SDS011;64680;53.800;9.988;2023-03-20T15:51:55;14.60;;;7.00;;
75993;SDS011;64680;53.800;9.988;2023-03-20T15:54:23;11.98;;;7.13;;
75993;SDS011;64680;53.800;9.988;2023-03-20T15:56:50;15.02;;;7.35;;
75993;SDS011;64680;53.800;9.988;2023-03-20T15:59:21;14.07;;;7.18;;
75993;SDS011;64680;53.800;9.988;2023-03-20T16:01:50;13.35;;;7.22;;
75993;SDS011;64680;53.800;9.988;2023-03-20T16:04:20;15.35;;;9.00;;
75993;SDS011;64680;53.800;9.988;2023-03-20T16:06:47;14.80;;;8.68;;
75993;SDS011;64680;53.800;9.988;2023-03-20T16:09:16;14.57;;;7.75;;
75993;SDS011;64680;53.800;9.988;2023-03-20T16:11:43;18.20;;;9.07;;
75993;SDS011;64680;53.800;9.988;2023-03-20T16:14:23;15.63;;;8.07;;
75993;SDS011;64680;53.800;9.988;2023-03-20T16:16:52;19.10;;;9.30;;
75993;SDS011;64680;53.800;9.988;2023-03-20T16:19:20;14.98;;;8.48;;
75993;SDS011;64680;53.800;9.988;2023-03-20T16:21:50;21.83;;;10.82;;
75993;SDS011;64680;53.800;9.988;2023-03-20T16:24:21;19.85;;;9.65;;
75993;SDS011;64680;53.800;9.988;2023-03-20T16:26:54;22.13;;;11.05;;
75993;SDS011;64680;53.800;9.988;2023-03-20T16:29:21;22.10;;;11.50;;
75993;SDS011;64680;53.800;9.988;2023-03-20T16:31:53;20.30;;;10.20;;
75993;SDS011;64680;53.800;9.988;2023-03-20T16:34:26;19.23;;;10.57;;
75993;SDS011;64680;53.800;9.988;2023-03-20T16:36:57;23.05;;;9.80;;
75993;SDS011;64680;53.800;9.988;2023-03-20T16:39:27;18.65;;;8.57;;
75993;SDS011;64680;53.800;9.988;2023-03-20T16:42:40;18.73;;;9.70;;
75993;SDS011;64680;53.800;9.988;2023-03-20T16:44:52;19.90;;;9.48;;
75993;SDS011;64680;53.800;9.988;2023-03-20T16:47:20;19.63;;;9.70;;
75993;SDS011;64680;53.800;9.988;2023-03-20T16:52:29;19.08;;;7.95;;
75993;SDS011;64680;53.800;9.988;2023-03-20T16:54:59;18.98;;;9.13;;
75993;SDS011;64680;53.800;9.988;2023-03-20T16:57:26;13.85;;;6.38;;
75993;SDS011;64680;53.800;9.988;2023-03-20T16:59:58;17.92;;;7.25;;
75993;SDS011;64680;53.800;9.988;2023-03-20T17:02:31;17.52;;;6.80;;
75993;SDS011;64680;53.800;9.988;2023-03-20T17:05:02;16.08;;;7.75;;
75993;SDS011;64680;53.800;9.988;2023-03-20T17:07:30;19.10;;;9.13;;
75993;SDS011;64680;53.800;9.988;2023-03-20T17:09:57;17.45;;;9.05;;
75993;SDS011;64680;53.800;9.988;2023-03-20T17:12:25;16.27;;;9.23;;
75993;SDS011;64680;53.800;9.988;2023-03-20T17:14:55;20.02;;;8.90;;
75993;SDS011;64680;53.800;9.988;2023-03-20T17:17:21;21.13;;;9.70;;
75993;SDS011;64680;53.800;9.988;2023-03-20T17:19:48;16.25;;;7.68;;
75993;SDS011;64680;53.800;9.988;2023-03-20T17:22:19;17.85;;;8.82;;
75993;SDS011;64680;53.800;9.988;2023-03-20T17:24:47;17.10;;;8.32;;
75993;SDS011;64680;53.800;9.988;2023-03-20T17:27:13;19.08;;;7.88;;
75993;SDS011;64680;53.800;9.988;2023-03-20T17:29:40;14.88;;;8.57;;
75993;SDS011;64680;53.800;9.988;2023-03-20T17:32:10;15.30;;;7.65;;
75993;SDS011;64680;53.800;9.988;2023-03-20T17:34:37;18.17;;;8.88;;
75993;SDS011;64680;53.800;9.988;2023-03-20T17:37:03;15.80;;;9.48;;
75993;SDS011;64680;53.800;9.988;2023-03-20T17:39:30;22.80;;;9.00;;
75993;SDS011;64680;53.800;9.988;2023-03-20T17:41:55;19.30;;;8.68;;